West Conshohocken, Pennsylvania
Current Conditions -  °F | °C
As of 7:55 AM on Wednesday 22 Oct 2014 (Local Time) from KLOM Reporting Station
Overcast Overcast  
Wind Chill: 55°   Ceiling: 1300
Heat Index: 55°   Visibility: 5mi
Dew Point: 52°   Wind: 3mph
Humidity: 88%   Direction: 10°N
Pressure: 29.88"   Gusts: NA
Location:  40.0833°N, 75.2928°W
Report Text: KLOM 221155Z AUTO 01003KT 5SM OVC013 13/11 A2988 RMK AO1 P0001
Loading
Personal Weather Stations






























Interactive Weather Map
Tropical Storm Tracking
New forecast layout! Learn more

10-Day Weather Forecast

Advertisements
Track Severe Weather on mobile